Aérodrome :
LOGIN :

S'inscrire | Disclaimer

   EN    FR    IT 

 










Légende :    VFR   VFR Marginal   IFR   IFR Intensif   IFR Très Intensif
Visi : 
Plafond : 
>= 8 km
>= 3000ft
5 à 8 km
1000 à 3000 ft
1500m à 5 km
500 à 1000 ft
800 à 1500m
200 à 500 ft
< 800m
< 200 ft
Symboles :   Orages  Brouillard  Fortes neiges  Fortes précipitations  Vent > 20 kt
SIGMETs :   Divers  Orages  Givrage  Turbulence  Onde Orograph.  Cendres Volcan.






- Altitude de l'aérodrome : 215 ft
- Code IATA : ABZ


EGPD - Aberdeen / Dyce

DERNIER METAR :
  • 021850Z AUTO 30013KT 9999 NCD 04/M06 Q1008 NOSIG

METARs EXPIRÉS :
  • 021820Z AUTO 30020G30KT 9999 NCD 05/M07 Q1007
  • 021750Z AUTO 30017G27KT 9999 NCD 05/M07 Q1007 NOSIG
  • 021720Z AUTO 32020KT 9999 NCD 06/M06 Q1007 NOSIG
  • 021650Z AUTO 30020G30KT 9999 NCD 06/M07 Q1007 NOSIG
  • 021620Z AUTO 31019G33KT 9999 NCD 06/M06 Q1006 NOSIG

TAF TAF EGPD
Valide du 02 à 18h jusqu'au 03 à 18h UTC


021703Z 0218/0318 30018KT 9999 SCT030
TEMPO 0218/0222 31022G32KT
PROB30
TEMPO 0218/0316 5000 SHRASN BKN014CB
BECMG 0219/0222 27008KT



MET'MAP, la Météo Aéronautique d'un coup d'oeil ! - Copyright ORBIFLY Décembre 2007 - Disclaimer

ORBIFLY MET'MAP TEAM :

Programmation & Développement : Alexandra Zaïnal
Sur une idée originale de : Baudouin d'Aumeries
Assistance à la programmation : Marc-Olivier Méhu
Soutien technique & logistique : Manuel Goepfert

Contact : metmap@orbifly.com




SOURCES & CREDITS :

   NOAA